Time;durP1;ratioP1;P1;durP2;ratioP2;P2;SDS_P1;SDS_P2;PMS_P1;PMS_P2;Temp;Humidity;BMP_temperature;BMP_pressure;BME280_temperature;BME280_humidity;BME280_pressure;Samples;Min_cycle;Max_cycle;Signal;HPM_P1;HPM_P2
2021/07/31 00:00:28;;;;;;;11.35;10.13;;;19.10;99.90;;;20.13;93.03;97444.38;5191215;28;20206;-56
2021/07/31 00:03:02;;;;;;;10.50;9.60;;;19.10;99.90;;;20.10;93.20;97442.59;5201761;28;20220;-60
2021/07/31 00:05:35;;;;;;;10.20;9.40;;;19.10;99.90;;;20.10;93.27;97433.97;5204472;28;20229;-57
2021/07/31 00:08:08;;;;;;;10.85;9.95;;;19.10;99.90;;;20.05;93.41;97431.28;5205427;28;20214;-56
2021/07/31 00:10:41;;;;;;;10.63;9.63;;;19.10;99.90;;;20.05;93.03;97438.22;5203611;28;20673;-59
2021/07/31 00:13:14;;;;;;;9.93;9.13;;;19.00;99.90;;;20.00;92.56;97438.13;5203900;28;20226;-52
2021/07/31 00:15:48;;;;;;;9.32;8.52;;;19.00;99.90;;;20.03;92.62;97439.06;5201968;28;20220;-56
2021/07/31 00:18:22;;;;;;;10.07;9.10;;;19.00;99.90;;;19.95;92.78;97435.50;5204007;28;21633;-57
2021/07/31 00:20:57;;;;;;;10.60;9.60;;;18.90;99.90;;;19.92;92.48;97442.38;5206023;28;20203;-56
2021/07/31 00:23:30;;;;;;;10.93;9.90;;;18.90;99.90;;;19.85;92.50;97438.81;5204461;28;20709;-56
2021/07/31 00:26:03;;;;;;;10.00;9.00;;;18.80;99.90;;;19.82;92.85;97437.91;5204143;28;20232;-56
2021/07/31 00:28:36;;;;;;;9.45;8.63;;;18.80;99.90;;;19.76;92.65;97439.56;5201037;28;20206;-60
2021/07/31 00:31:09;;;;;;;10.32;9.43;;;18.70;99.90;;;19.74;93.03;97443.88;5202296;28;20201;-60
2021/07/31 00:33:44;;;;;;;10.85;9.85;;;18.70;99.90;;;19.67;93.15;97452.41;5203524;28;20232;-60
2021/07/31 00:36:17;;;;;;;10.95;9.88;;;18.70;99.90;;;19.65;93.22;97448.91;5201686;28;20204;-60
2021/07/31 00:38:50;;;;;;;11.77;10.65;;;18.70;99.90;;;19.58;93.57;97454.84;5203329;28;20663;-60
2021/07/31 00:41:23;;;;;;;10.63;9.73;;;18.60;99.90;;;19.53;93.64;97446.09;5203008;28;20198;-60
2021/07/31 00:43:56;;;;;;;11.23;10.30;;;18.60;99.90;;;19.52;93.55;97439.19;5201726;28;20198;-60
2021/07/31 00:46:29;;;;;;;10.60;9.50;;;18.50;99.90;;;19.50;94.08;97446.94;5204646;28;20313;-60
2021/07/31 00:49:03;;;;;;;10.80;9.80;;;18.60;99.90;;;19.49;94.22;97445.19;5201591;28;20205;-60
2021/07/31 00:51:36;;;;;;;10.38;9.48;;;18.60;99.90;;;19.51;94.39;97447.78;5202668;28;20233;-60
2021/07/31 00:54:10;;;;;;;10.65;9.77;;;18.60;99.90;;;19.53;94.31;97443.50;5204261;28;20212;-60
2021/07/31 00:56:44;;;;;;;10.27;9.38;;;18.60;99.90;;;19.59;94.70;97446.19;5202303;28;20204;-60
2021/07/31 00:59:17;;;;;;;9.90;9.10;;;18.60;99.90;;;19.64;94.30;97454.06;5193941;28;20201;-60
2021/07/31 01:01:50;;;;;;;10.90;9.85;;;18.70;99.90;;;19.66;94.42;97455.84;5197729;28;20233;-60
2021/07/31 01:04:25;;;;;;;10.25;9.35;;;18.70;99.90;;;19.64;94.57;97436.78;5202353;28;20205;-60
2021/07/31 01:06:58;;;;;;;10.55;9.65;;;18.70;99.90;;;19.70;94.65;97444.66;5202649;28;20225;-60
2021/07/31 01:09:31;;;;;;;11.30;10.25;;;18.80;99.90;;;19.74;94.57;97441.28;5203887;28;20206;-60
2021/07/31 01:12:05;;;;;;;10.35;9.45;;;18.80;99.90;;;19.76;94.13;97444.75;5203055;28;20602;-59
2021/07/31 01:14:38;;;;;;;10.32;9.38;;;18.80;99.90;;;19.97;91.99;97453.66;5200070;28;20208;-60
2021/07/31 01:17:12;;;;;;;9.32;8.52;;;18.80;99.90;;;19.87;92.20;97449.22;5204033;28;20208;-60
2021/07/31 01:19:47;;;;;;;9.65;8.77;;;18.80;99.90;;;19.79;92.35;97446.50;5201084;28;20212;-60
2021/07/31 01:22:21;;;;;;;10.60;9.70;;;18.80;99.90;;;19.75;92.64;97448.19;5201462;28;20232;-59
2021/07/31 01:24:54;;;;;;;10.80;9.75;;;18.80;99.90;;;19.72;92.88;97458.53;5202597;28;20363;-60
2021/07/31 01:27:27;;;;;;;10.95;10.05;;;18.80;99.90;;;19.73;92.98;97439.53;5201467;28;20595;-60
2021/07/31 01:30:01;;;;;;;10.68;9.77;;;18.80;99.90;;;19.68;93.23;97442.91;5203788;28;20198;-60
2021/07/31 01:32:34;;;;;;;10.90;9.93;;;18.70;99.90;;;19.66;92.98;97442.88;5200025;28;20222;-60
2021/07/31 01:35:08;;;;;;;11.07;10.18;;;18.70;99.90;;;19.67;93.47;97449.81;5200561;28;20200;-60
2021/07/31 01:37:42;;;;;;;10.70;9.68;;;18.80;99.90;;;19.69;93.14;97447.25;5203459;28;20194;-60
2021/07/31 01:40:15;;;;;;;9.70;8.80;;;18.70;99.90;;;19.72;92.71;97448.16;5191230;28;20594;-59
2021/07/31 01:42:49;;;;;;;10.13;9.13;;;18.70;99.90;;;19.69;92.39;97442.94;5195161;28;20657;-60
2021/07/31 01:45:22;;;;;;;9.90;8.90;;;18.80;99.90;;;19.73;91.76;97443.84;5201294;28;20202;-59
2021/07/31 01:47:55;;;;;;;9.13;8.32;;;18.80;99.90;;;19.75;90.76;97448.19;5206890;28;20769;-60
2021/07/31 01:50:28;;;;;;;9.63;8.73;;;18.80;99.90;;;19.79;89.81;97434.41;5206520;28;20198;-58
2021/07/31 01:53:03;;;;;;;9.60;8.77;;;18.80;99.90;;;19.82;90.11;97443.09;5206234;28;20222;-58
2021/07/31 01:55:36;;;;;;;9.52;8.48;;;18.90;99.90;;;19.83;89.59;97444.81;5207462;28;20285;-58
2021/07/31 01:58:09;;;;;;;8.63;7.82;;;18.90;99.90;;;19.84;89.50;97446.59;5205253;28;20285;-58
2021/07/31 02:00:42;;;;;;;8.65;7.88;;;18.90;99.90;;;19.82;89.58;97440.50;5205615;28;20202;-59
2021/07/31 02:03:15;;;;;;;9.00;8.00;;;18.90;99.90;;;19.80;89.53;97448.25;5203428;28;20218;-58
2021/07/31 02:05:48;;;;;;;8.05;7.40;;;18.80;99.90;;;19.77;89.27;97446.50;5208331;28;20285;-59
2021/07/31 02:08:23;;;;;;;7.75;6.95;;;18.80;99.90;;;19.76;87.83;97451.66;5205640;28;20216;-57
2021/07/31 02:10:56;;;;;;;6.30;5.70;;;18.80;99.90;;;19.71;86.66;97454.19;5205355;28;20199;-57
2021/07/31 02:13:29;;;;;;;6.20;5.60;;;18.70;99.90;;;19.68;85.52;97446.34;5205600;28;20727;-59
2021/07/31 02:16:03;;;;;;;5.95;5.35;;;18.70;99.90;;;19.66;84.97;97457.56;5204926;28;20579;-59
2021/07/31 02:18:36;;;;;;;5.10;4.70;;;18.70;99.90;;;19.61;84.46;97449.69;5205283;28;20293;-59
2021/07/31 02:21:12;;;;;;;4.85;4.45;;;18.70;99.90;;;19.58;82.11;97449.66;5206412;28;20198;-59
2021/07/31 02:23:46;;;;;;;5.50;4.22;;;18.60;99.90;;;19.55;80.99;97442.69;5206131;28;20637;-59
2021/07/31 02:26:19;;;;;;;4.38;3.80;;;18.60;99.90;;;19.52;79.44;97452.16;5206335;28;20236;-59
2021/07/31 02:28:52;;;;;;;4.72;3.78;;;18.60;99.90;;;19.51;79.01;97453.84;5205247;28;20198;-58
2021/07/31 02:31:25;;;;;;;4.30;3.88;;;18.60;99.90;;;19.53;79.43;97456.47;5203041;28;20190;-59
2021/07/31 02:33:59;;;;;;;6.43;3.65;;;18.60;99.90;;;19.51;78.73;97455.56;5206081;28;20657;-59
2021/07/31 02:36:32;;;;;;;4.20;3.80;;;18.50;99.90;;;19.46;78.85;97454.63;5205127;28;20567;-58
2021/07/31 02:39:06;;;;;;;3.80;3.50;;;18.50;99.90;;;19.44;79.40;97448.56;5203843;28;20217;-59
2021/07/31 02:41:39;;;;;;;5.03;3.60;;;18.50;99.90;;;19.39;78.42;97445.03;5205455;28;20224;-57
2021/07/31 02:44:12;;;;;;;6.10;3.70;;;18.40;99.90;;;19.38;78.23;97448.47;5205076;28;20200;-58
2021/07/31 02:46:45;;;;;;;5.32;3.90;;;18.40;99.90;;;19.34;78.21;97442.34;5206959;28;20232;-57
2021/07/31 02:49:18;;;;;;;5.47;3.30;;;18.30;99.90;;;19.27;78.17;97443.13;5203861;28;20198;-59
2021/07/31 02:51:52;;;;;;;4.07;3.40;;;18.40;99.90;;;19.22;77.65;97440.44;5205930;28;20229;-59
2021/07/31 02:54:26;;;;;;;4.07;3.20;;;18.30;99.90;;;19.23;76.94;97442.19;5206064;28;20742;-59
2021/07/31 02:56:59;;;;;;;3.35;3.00;;;18.30;99.90;;;19.17;75.93;97434.28;5204765;28;20707;-58
2021/07/31 02:59:32;;;;;;;4.32;3.10;;;18.30;99.90;;;19.16;74.86;97442.94;5205360;28;20647;-59
2021/07/31 03:02:06;;;;;;;3.35;3.00;;;18.30;99.90;;;19.24;72.02;97438.75;5202964;28;20304;-59
2021/07/31 03:04:39;;;;;;;3.85;2.90;;;18.30;99.90;;;19.39;69.79;97442.44;5205310;28;20209;-59
2021/07/31 03:07:12;;;;;;;2.70;2.50;;;18.40;99.90;;;19.27;69.75;97438.78;5205600;28;20697;-59
2021/07/31 03:09:47;;;;;;;2.83;2.60;;;18.30;99.90;;;19.20;65.29;97446.44;5204190;28;20202;-58
2021/07/31 03:12:20;;;;;;;3.75;2.50;;;18.30;99.90;;;19.16;67.56;97444.66;5204131;28;20248;-59
2021/07/31 03:14:53;;;;;;;3.80;2.40;;;18.30;99.90;;;19.16;67.50;97455.03;5204979;28;20692;-58
2021/07/31 03:17:27;;;;;;;4.80;2.50;;;18.30;99.90;;;19.11;69.15;97447.16;5205275;28;20575;-58
2021/07/31 03:20:00;;;;;;;3.38;2.35;;;18.20;99.90;;;19.05;68.57;97460.00;5203074;28;20212;-58
2021/07/31 03:22:33;;;;;;;3.35;2.47;;;18.20;99.90;;;19.05;69.16;97460.00;5204870;28;20224;-58
2021/07/31 03:25:09;;;;;;;3.50;2.40;;;18.20;99.90;;;19.07;69.93;97455.75;5205617;28;20198;-59
2021/07/31 03:27:41;;;;;;;2.65;2.22;;;18.20;99.90;;;19.06;69.57;97454.00;5198332;28;20226;-57
2021/07/31 03:30:15;;;;;;;4.65;2.33;;;18.20;99.90;;;18.98;67.51;97450.41;5204524;28;20210;-59
2021/07/31 03:32:48;;;;;;;3.78;2.50;;;18.10;99.90;;;18.98;66.38;97450.41;5204843;28;20241;-59
2021/07/31 03:35:21;;;;;;;3.95;2.35;;;18.10;99.90;;;18.94;67.53;97461.53;5200431;28;20199;-57
2021/07/31 03:37:54;;;;;;;4.55;2.20;;;18.10;99.90;;;18.93;68.62;97459.81;5204933;28;20197;-58
2021/07/31 03:40:29;;;;;;;3.28;2.30;;;18.00;99.90;;;18.92;68.62;97447.72;5202844;28;20202;-57
2021/07/31 03:43:02;;;;;;;3.55;2.50;;;18.00;99.90;;;18.90;69.54;97453.72;5203010;28;20228;-58
2021/07/31 03:45:35;;;;;;;3.40;2.40;;;18.00;99.90;;;18.89;69.19;97454.56;5202554;28;20202;-58
2021/07/31 03:48:08;;;;;;;3.80;2.60;;;18.00;99.90;;;18.88;70.44;97450.22;5201744;28;20218;-59
2021/07/31 03:50:41;;;;;;;4.25;2.53;;;18.00;99.90;;;18.89;70.51;97456.28;5203350;28;20212;-59
2021/07/31 03:53:14;;;;;;;5.10;2.40;;;18.00;99.90;;;18.87;70.61;97453.66;5203184;28;20236;-59
2021/07/31 03:55:49;;;;;;;2.50;2.25;;;18.00;99.90;;;18.85;70.34;97452.75;5204667;28;20205;-59
2021/07/31 03:58:22;;;;;;;3.30;2.53;;;18.00;99.90;;;18.89;71.09;97454.56;5200704;28;20212;-60
2021/07/31 04:00:55;;;;;;;4.95;2.60;;;18.00;99.90;;;18.90;72.54;97458.03;5196283;28;20293;-59
2021/07/31 04:03:28;;;;;;;3.58;2.33;;;18.00;99.90;;;18.90;72.68;97466.66;5199667;28;20222;-59
2021/07/31 04:06:01;;;;;;;3.33;2.67;;;18.00;99.90;;;18.92;73.23;97465.84;5203690;28;20212;-58
2021/07/31 04:08:35;;;;;;;4.25;2.70;;;18.00;99.90;;;18.92;73.26;97465.84;5201384;28;20222;-59
2021/07/31 04:11:10;;;;;;;5.35;2.60;;;18.00;99.90;;;18.90;73.46;97458.91;5201451;28;20202;-58
2021/07/31 04:13:43;;;;;;;3.83;2.30;;;17.90;99.90;;;18.88;73.33;97468.34;5200262;28;20229;-59
2021/07/31 04:16:16;;;;;;;2.83;2.63;;;17.90;99.90;;;18.87;73.49;97468.34;5199986;28;20194;-57
2021/07/31 04:18:49;;;;;;;5.15;2.80;;;17.90;99.90;;;18.86;73.28;97472.66;5201780;28;20194;-58
2021/07/31 04:21:22;;;;;;;3.42;2.60;;;17.80;99.90;;;18.85;73.55;97473.47;5202198;28;20206;-59
2021/07/31 04:23:55;;;;;;;6.70;2.50;;;17.90;99.90;;;18.81;73.54;97479.47;5200762;28;20194;-59
2021/07/31 04:26:29;;;;;;;3.65;2.45;;;17.80;99.90;;;18.75;74.38;97476.75;5202173;28;20645;-59
2021/07/31 04:29:03;;;;;;;3.45;2.83;;;17.80;99.90;;;18.73;74.36;97473.22;5199634;28;21685;-59
2021/07/31 04:31:36;;;;;;;4.85;2.60;;;17.80;99.90;;;18.73;75.00;97473.22;5203284;28;20228;-58
2021/07/31 04:34:09;;;;;;;4.63;2.90;;;17.80;99.90;;;18.69;74.89;97479.22;5201346;28;20541;-58
2021/07/31 04:36:42;;;;;;;3.38;2.80;;;17.70;99.90;;;18.61;74.22;97480.78;5198618;28;20206;-58
2021/07/31 04:39:16;;;;;;;3.35;3.05;;;17.60;99.90;;;18.49;75.88;97480.53;5201600;28;20580;-58
2021/07/31 04:41:50;;;;;;;4.78;2.70;;;17.60;99.90;;;18.67;75.07;97483.47;5200097;28;20226;-59
2021/07/31 04:44:23;;;;;;;5.05;2.83;;;17.60;99.90;;;18.39;74.78;97485.50;5200936;28;20201;-59
2021/07/31 04:46:56;;;;;;;3.72;2.70;;;17.40;99.90;;;18.20;75.05;97481.69;5197424;28;20200;-59
2021/07/31 04:49:29;;;;;;;3.92;2.75;;;17.30;99.90;;;18.18;76.38;97492.84;5195783;28;20218;-58
2021/07/31 04:52:02;;;;;;;3.60;3.08;;;17.30;99.90;;;18.18;76.61;97490.25;5201714;28;20229;-58
2021/07/31 04:54:40;;;;;;;4.50;3.20;;;17.20;99.90;;;18.16;76.32;97491.94;5189645;28;20260;-59
2021/07/31 04:57:14;;;;;;;3.67;2.50;;;17.20;99.90;;;18.14;76.70;97504.84;5199260;28;20297;-57
2021/07/31 04:59:47;;;;;;;4.60;2.70;;;17.20;99.90;;;18.22;77.39;97500.69;5198527;28;20197;-59
2021/07/31 05:02:20;;;;;;;3.70;3.15;;;17.20;99.90;;;18.21;78.55;97501.53;5202640;28;20224;-58
2021/07/31 05:04:54;;;;;;;3.58;2.88;;;17.30;99.90;;;18.24;79.13;97500.72;5202084;28;20205;-59
2021/07/31 05:07:27;;;;;;;4.38;3.25;;;17.30;99.90;;;18.32;79.81;97504.34;5202351;28;20202;-58
2021/07/31 05:10:00;;;;;;;4.13;2.95;;;17.30;99.90;;;18.24;79.06;97501.59;5200876;28;20213;-58
2021/07/31 05:12:34;;;;;;;5.53;3.40;;;17.30;99.90;;;18.19;79.83;97499.75;5199480;28;20229;-59
2021/07/31 05:15:08;;;;;;;3.70;3.00;;;17.20;99.90;;;18.18;79.19;97501.47;5200189;28;20210;-59
2021/07/31 05:17:41;;;;;;;4.90;3.38;;;17.20;99.90;;;18.28;79.72;97501.66;5202472;28;20196;-58
2021/07/31 05:20:15;;;;;;;5.30;3.47;;;17.30;99.90;;;18.44;79.85;97501.13;5200152;28;20206;-59
2021/07/31 05:22:48;;;;;;;3.45;3.10;;;17.40;99.90;;;18.59;79.23;97508.34;5202658;28;20249;-58
2021/07/31 05:25:21;;;;;;;3.45;3.15;;;17.60;99.90;;;18.68;78.64;97508.50;5205356;28;20741;-59
2021/07/31 05:27:55;;;;;;;3.00;2.70;;;17.70;99.90;;;19.02;77.90;97514.38;5206031;28;20206;-59
2021/07/31 05:30:28;;;;;;;3.00;2.70;;;18.00;99.90;;;19.77;73.75;97500.97;5202245;28;20653;-58
2021/07/31 05:33:01;;;;;;;4.22;2.80;;;18.60;99.90;;;20.38;69.65;97507.88;5204067;28;20244;-57
2021/07/31 05:35:35;;;;;;;3.75;2.53;;;19.00;99.90;;;20.79;68.28;97504.91;5202868;28;20786;-58
2021/07/31 05:38:08;;;;;;;3.80;2.65;;;19.40;99.90;;;21.36;66.11;97508.94;5207285;28;20194;-58
2021/07/31 05:40:41;;;;;;;4.05;2.38;;;19.80;99.90;;;22.03;64.86;97506.88;5205813;28;20206;-58
2021/07/31 05:43:15;;;;;;;2.92;2.50;;;20.40;99.90;;;22.53;62.63;97512.38;5205872;28;20316;-59
2021/07/31 05:45:49;;;;;;;3.25;2.13;;;20.80;99.90;;;22.98;60.41;97506.47;5205115;28;20205;-60
2021/07/31 05:48:22;;;;;;;3.65;2.58;;;21.10;99.90;;;23.35;59.33;97511.69;5204311;28;20671;-61
2021/07/31 05:50:55;;;;;;;3.15;2.20;;;21.30;99.90;;;23.54;58.65;97504.75;5207829;28;20216;-61
2021/07/31 05:53:28;;;;;;;3.67;2.30;;;21.50;99.90;;;23.77;56.84;97503.03;5205938;28;20607;-60
2021/07/31 05:56:01;;;;;;;3.45;2.17;;;21.60;99.90;;;24.14;55.84;97505.59;5200989;28;20205;-59
2021/07/31 05:58:36;;;;;;;3.85;2.13;;;21.80;99.90;;;24.44;54.80;97509.91;5202178;28;20200;-61
2021/07/31 06:01:10;;;;;;;3.63;2.50;;;22.00;99.90;;;24.73;54.23;97507.16;5200511;28;20193;-61
2021/07/31 06:03:44;;;;;;;2.65;2.28;;;22.20;99.90;;;24.93;53.08;97509.66;5200756;28;20229;-60
2021/07/31 06:06:17;;;;;;;3.85;2.45;;;22.20;99.90;;;25.18;52.45;97506.91;5198531;28;20233;-61
2021/07/31 06:08:50;;;;;;;2.42;2.22;;;22.40;99.90;;;25.44;51.81;97509.38;5200039;28;20228;-60
2021/07/31 06:11:23;;;;;;;2.47;2.03;;;22.70;99.90;;;25.84;49.00;97509.94;5198614;28;20229;-61
2021/07/31 06:13:58;;;;;;;2.75;2.40;;;22.90;99.90;;;26.04;48.33;97501.88;5202376;28;20216;-61
2021/07/31 06:16:31;;;;;;;3.85;2.05;;;23.00;99.90;;;26.13;46.75;97510.53;5204241;28;20192;-61
2021/07/31 06:19:04;;;;;;;3.22;2.05;;;23.00;99.90;;;26.31;45.74;97506.84;5200882;28;20716;-60
2021/07/31 06:21:37;;;;;;;2.22;1.90;;;22.90;99.90;;;26.49;45.70;97512.72;5199223;28;20230;-61
2021/07/31 06:24:10;;;;;;;2.20;1.92;;;23.10;99.90;;;26.71;44.87;97510.75;5200748;28;20201;-61
2021/07/31 06:26:43;;;;;;;3.55;2.30;;;23.30;99.90;;;26.65;44.80;97507.34;5199797;28;20204;-62
2021/07/31 06:29:18;;;;;;;3.35;2.08;;;23.20;99.90;;;26.33;45.14;97503.31;5200250;28;20222;-62
2021/07/31 06:31:51;;;;;;;3.72;2.13;;;23.20;99.90;;;26.00;46.11;97510.63;5198651;28;20225;-61
2021/07/31 06:34:26;;;;;;;3.78;2.20;;;23.00;99.90;;;25.54;46.25;97499.69;5198658;28;20204;-62
2021/07/31 06:36:59;;;;;;;3.78;2.03;;;23.10;99.30;;;26.45;44.09;97503.16;5200835;28;20303;-62
2021/07/31 06:39:32;;;;;;;2.92;2.00;;;23.40;98.80;;;26.76;42.55;97507.22;5199472;28;20589;-62
2021/07/31 06:42:05;;;;;;;2.80;2.00;;;23.80;97.60;;;27.30;42.00;97505.59;5200726;28;20221;-61
2021/07/31 06:44:39;;;;;;;3.33;2.08;;;24.40;97.40;;;27.88;40.28;97508.19;5201183;28;20202;-61
2021/07/31 06:47:14;;;;;;;4.60;2.05;;;24.80;95.70;;;27.80;39.46;97497.78;5200430;28;20211;-62
2021/07/31 06:49:47;;;;;;;3.90;1.60;;;24.80;94.50;;;27.91;38.72;97500.25;5202960;28;20216;-61
2021/07/31 06:52:20;;;;;;;4.15;1.92;;;25.10;94.10;;;27.95;37.65;97501.91;5199825;28;20218;-62
2021/07/31 06:54:53;;;;;;;3.03;1.63;;;25.10;93.10;;;27.26;39.14;97514.38;5200806;28;20683;-61
2021/07/31 06:57:26;;;;;;;3.25;1.90;;;24.90;92.90;;;27.57;38.38;97503.41;5199575;28;20675;-62
2021/07/31 07:00:00;;;;;;;2.15;1.73;;;24.90;93.20;;;28.15;37.85;97498.91;5196496;28;20610;-62
2021/07/31 07:02:33;;;;;;;3.47;1.63;;;25.20;93.10;;;28.69;37.48;97498.75;5200346;28;20685;-62
2021/07/31 07:05:08;;;;;;;4.00;1.70;;;25.50;92.90;;;28.43;38.35;97496.66;5199458;28;20228;-62
2021/07/31 07:07:41;;;;;;;4.30;1.77;;;25.30;93.90;;;28.34;38.24;97505.56;5199158;28;20220;-62
2021/07/31 07:10:14;;;;;;;4.07;1.80;;;25.30;93.00;;;28.23;38.83;97503.13;5197980;28;20641;-62
2021/07/31 07:12:47;;;;;;;3.97;1.95;;;25.40;92.90;;;28.02;39.30;97491.25;5200336;28;20225;-61
2021/07/31 07:15:22;;;;;;;4.15;1.73;;;25.30;93.50;;;28.10;38.46;97490.25;5201080;28;20207;-59
2021/07/31 07:17:55;;;;;;;3.72;1.90;;;25.10;93.20;;;27.96;38.85;97486.13;5199028;28;20205;-62
2021/07/31 07:20:28;;;;;;;3.92;2.10;;;24.70;93.60;;;27.51;39.71;97485.13;5198642;28;20197;-61
2021/07/31 07:23:01;;;;;;;4.75;2.30;;;24.50;93.90;;;27.36;39.87;97479.25;5200114;28;20228;-62
2021/07/31 07:25:34;;;;;;;4.85;1.90;;;24.70;93.40;;;27.14;41.34;97481.28;5198440;28;20205;-61
2021/07/31 07:28:08;;;;;;;3.13;1.92;;;24.80;93.90;;;27.66;38.82;97476.97;5197538;28;20206;-62
2021/07/31 07:30:45;;;;;;;4.15;1.83;;;24.70;92.80;;;27.79;38.92;97472.44;5201523;28;20228;-62
2021/07/31 07:33:19;;;;;;;3.03;2.00;;;25.00;93.00;;;27.81;39.44;97471.50;5196292;28;20221;-62
2021/07/31 07:35:52;;;;;;;3.67;2.08;;;25.10;93.50;;;27.63;39.97;97477.03;5199239;28;20194;-62
2021/07/31 07:38:25;;;;;;;3.67;1.88;;;25.10;93.50;;;27.42;40.11;97477.41;5200417;28;20296;-61
2021/07/31 07:40:58;;;;;;;4.03;2.10;;;24.80;93.40;;;26.49;42.76;97480.41;5198972;28;20194;-61
2021/07/31 07:43:31;;;;;;;4.00;2.05;;;24.40;94.60;;;27.25;40.21;97475.91;5203497;28;20692;-62
2021/07/31 07:46:06;;;;;;;4.43;2.17;;;24.60;93.50;;;27.71;40.07;97475.16;5197324;28;20755;-62
2021/07/31 07:48:39;;;;;;;3.33;2.03;;;25.10;93.40;;;28.00;38.73;97476.41;5198573;28;20201;-60
2021/07/31 07:51:13;;;;;;;3.72;1.83;;;25.20;92.90;;;27.87;38.71;97474.91;5198502;28;20224;-61
2021/07/31 07:53:46;;;;;;;3.13;1.70;;;25.10;92.60;;;28.12;38.73;97486.69;5198951;28;20219;-62
2021/07/31 07:56:19;;;;;;;4.07;1.90;;;25.10;92.80;;;28.41;38.61;97482.63;5198824;28;20292;-62
2021/07/31 07:58:57;;;;;;;4.13;1.83;;;25.30;92.70;;;29.32;36.89;97478.94;5198046;28;20208;-62
2021/07/31 08:01:32;;;;;;;3.03;1.88;;;26.00;92.10;;;30.13;36.34;97479.50;5212425;28;20197;-62
2021/07/31 08:04:06;;;;;;;4.85;2.30;;;26.60;92.10;;;30.12;34.39;97477.78;5195585;28;20236;-62
2021/07/31 08:06:39;;;;;;;3.17;2.00;;;26.50;90.70;;;29.25;36.87;97482.63;5185911;28;20204;-62
2021/07/31 08:09:12;;;;;;;4.45;1.80;;;26.10;91.80;;;28.76;37.57;97479.31;5202523;28;20223;-62
2021/07/31 08:11:45;;;;;;;2.90;1.88;;;25.90;91.30;;;28.37;37.84;97478.34;5202049;28;20229;-63
2021/07/31 08:14:18;;;;;;;3.58;1.77;;;25.50;92.10;;;28.30;38.69;97483.72;5198205;28;20201;-63
2021/07/31 08:16:52;;;;;;;4.20;1.95;;;25.50;92.10;;;28.22;38.08;97480.38;5198126;28;20205;-63
2021/07/31 08:19:25;;;;;;;4.10;1.88;;;25.50;91.50;;;28.19;37.21;97472.56;5197554;28;20201;-62
2021/07/31 08:21:58;;;;;;;3.83;2.10;;;25.60;90.90;;;28.15;37.98;97475.25;5198038;28;20589;-63
2021/07/31 08:24:31;;;;;;;3.42;1.90;;;25.80;91.20;;;28.36;38.68;97473.97;5196382;28;20221;-64
2021/07/31 08:27:05;;;;;;;3.35;2.15;;;26.00;91.30;;;28.06;38.73;97481.56;5197449;28;20676;-63
2021/07/31 08:29:38;;;;;;;3.70;2.10;;;25.70;91.30;;;27.71;40.21;97485.66;5198456;28;20227;-61
2021/07/31 08:32:12;;;;;;;3.15;1.67;;;25.50;92.00;;;27.49;38.73;97479.03;5197869;28;20218;-60
2021/07/31 08:34:45;;;;;;;4.35;1.98;;;25.40;91.30;;;27.02;40.54;97483.25;5205565;28;20215;-60
2021/07/31 08:37:18;;;;;;;3.33;2.03;;;25.00;92.60;;;26.95;40.61;97483.28;5203043;28;20238;-60
2021/07/31 08:39:51;;;;;;;2.85;1.90;;;25.10;91.90;;;27.11;41.20;97485.72;5197300;28;20189;-60
2021/07/31 08:42:24;;;;;;;2.35;2.10;;;25.10;92.40;;;27.42;39.58;97478.28;5197679;28;20231;-60
2021/07/31 08:44:57;;;;;;;3.13;2.10;;;25.40;91.50;;;27.48;39.83;97477.31;5196994;28;20203;-59
2021/07/31 08:47:33;;;;;;;4.15;2.05;;;25.40;91.70;;;27.37;39.93;97480.97;5198808;28;20200;-60
2021/07/31 08:50:08;;;;;;;3.42;2.25;;;25.30;91.50;;;27.45;39.72;97472.09;5198091;28;20256;-60
2021/07/31 08:52:48;;;;;;;4.80;2.08;;;25.60;91.50;;;27.50;39.55;97470.25;5196927;28;20217;-60
2021/07/31 08:55:21;;;;;;;3.35;2.13;;;25.80;90.90;;;27.50;40.04;97473.75;5195813;28;20203;-60
2021/07/31 08:57:54;;;;;;;2.85;2.10;;;25.90;90.90;;;27.78;39.42;97475.91;5196738;28;20408;-60
2021/07/31 09:00:28;;;;;;;4.15;2.15;;;26.30;90.40;;;28.01;39.71;97475.50;5194740;28;20203;-60
2021/07/31 09:03:02;;;;;;;3.92;1.90;;;26.60;90.20;;;28.15;35.92;97465.59;5190931;28;20220;-60
2021/07/31 09:05:38;;;;;;;3.45;1.70;;;26.80;85.80;;;28.14;36.65;97466.50;5193798;28;20205;-60
2021/07/31 09:08:12;;;;;;;3.70;1.90;;;26.90;85.00;;;28.24;35.39;97460.19;5195572;28;20197;-60
2021/07/31 09:10:46;;;;;;;3.13;1.77;;;27.10;83.20;;;28.08;35.36;97474.50;5191422;28;20225;-60
2021/07/31 09:13:20;;;;;;;2.85;2.03;;;26.90;82.90;;;28.08;35.78;97461.38;5192057;28;20730;-60
2021/07/31 09:15:54;;;;;;;4.03;1.67;;;26.60;83.80;;;28.09;36.14;97460.47;5191968;28;20209;-60
2021/07/31 09:18:32;;;;;;;2.50;1.80;;;26.90;85.10;;;28.17;36.09;97460.31;5190765;28;20205;-60
2021/07/31 09:21:10;;;;;;;3.03;1.98;;;26.90;83.80;;;28.24;35.23;97465.44;5191231;28;20219;-59
2021/07/31 09:23:47;;;;;;;3.92;2.08;;;26.90;83.90;;;28.33;35.93;97459.13;5197510;28;20232;-60
2021/07/31 09:26:23;;;;;;;3.90;1.88;;;27.00;83.60;;;28.35;35.62;97453.84;5194761;28;20197;-59
2021/07/31 09:29:02;;;;;;;2.60;1.60;;;27.10;83.20;;;28.06;35.82;97457.91;5193450;28;20212;-59
2021/07/31 09:31:37;;;;;;;2.65;1.85;;;26.60;83.60;;;28.05;36.71;97462.28;5191530;28;20225;-57
2021/07/31 09:34:12;;;;;;;2.65;1.50;;;26.50;85.40;;;28.16;36.65;97456.84;5193112;28;20209;-59
2021/07/31 09:36:45;;;;;;;3.60;1.70;;;26.70;85.30;;;28.11;34.62;97453.44;5192716;28;20205;-59
2021/07/31 09:39:18;;;;;;;2.58;1.73;;;26.90;81.70;;;27.84;35.35;97447.81;5194215;28;20197;-59
2021/07/31 09:41:52;;;;;;;3.65;2.15;;;26.30;82.70;;;27.34;37.23;97453.91;5191135;28;20217;-60
2021/07/31 09:44:25;;;;;;;1.88;1.65;;;26.00;85.70;;;27.47;37.85;97449.28;5191781;28;20596;-60
2021/07/31 09:47:01;;;;;;;3.30;1.90;;;25.90;86.60;;;27.53;36.94;97449.22;5189898;28;20579;-60
2021/07/31 09:49:41;;;;;;;1.80;1.58;;;26.10;84.10;;;27.59;36.37;97447.34;5190263;28;20206;-61
2021/07/31 09:52:18;;;;;;;2.38;1.90;;;26.30;83.50;;;27.61;36.34;97436.78;5191840;28;20224;-60
2021/07/31 09:54:53;;;;;;;4.18;1.90;;;26.40;83.30;;;27.85;36.17;97441.66;5190786;28;20190;-61
2021/07/31 09:57:29;;;;;;;3.33;1.52;;;26.60;83.40;;;27.92;36.30;97441.53;5190918;28;20207;-60
2021/07/31 10:00:06;;;;;;;3.28;1.65;;;26.70;83.60;;;28.02;35.83;97438.69;5191130;28;20205;-61
2021/07/31 10:02:39;;;;;;;4.47;2.00;;;26.70;82.80;;;28.18;36.67;97439.25;5191883;28;20241;-61
2021/07/31 10:05:19;;;;;;;2.58;1.77;;;26.80;84.50;;;28.02;35.88;97435.22;5192139;28;20204;-60
2021/07/31 10:07:53;;;;;;;3.10;1.70;;;26.70;83.10;;;27.91;36.07;97435.41;5192237;28;20228;-60
2021/07/31 10:10:26;;;;;;;2.90;1.77;;;26.20;83.30;;;27.77;36.51;97430.38;5192927;28;20229;-60
2021/07/31 10:12:59;;;;;;;3.13;1.90;;;26.30;84.50;;;27.61;36.86;97426.28;5195943;28;20241;-61
2021/07/31 10:15:33;;;;;;;2.60;1.65;;;26.40;83.80;;;27.59;36.58;97423.72;5195252;28;20213;-61
2021/07/31 10:18:11;;;;;;;3.88;1.77;;;26.20;84.10;;;27.49;36.94;97429.13;5194565;28;20212;-59
2021/07/31 10:20:46;;;;;;;1.88;1.70;;;26.10;84.70;;;27.42;36.26;97435.41;5195583;28;20193;-61
2021/07/31 10:23:56;;;;;;;3.42;1.55;;;26.10;82.40;;;27.33;35.37;97421.53;5195263;28;20224;-60
2021/07/31 10:26:30;;;;;;;3.17;1.67;;;26.00;81.50;;;27.29;34.55;97424.22;5195086;28;20696;-60
2021/07/31 10:29:41;;;;;;;2.88;1.65;;;26.10;80.30;;;27.16;35.73;97411.31;5197128;28;20211;-60
2021/07/31 10:32:42;;;;;;;2.63;1.65;;;26.20;81.20;;;27.04;36.59;97418.47;5193880;28;20232;-60
2021/07/31 10:35:37;;;;;;;2.78;1.40;;;26.00;82.20;;;27.18;37.86;97425.28;5193129;28;20327;-61
2021/07/31 10:38:12;;;;;;;3.22;1.90;;;25.90;85.20;;;27.22;37.74;97428.72;5198517;28;20327;-61
2021/07/31 10:40:46;;;;;;;3.22;1.75;;;26.10;84.20;;;27.15;38.41;97432.28;5197619;28;20614;-61
2021/07/31 10:43:20;;;;;;;2.50;1.60;;;26.00;85.90;;;26.95;38.77;97435.22;5199228;28;20219;-61
2021/07/31 10:46:21;;;;;;;3.05;1.92;;;25.60;86.90;;;26.87;38.24;97440.59;5198825;28;20610;-61